createdAt,value
2022-12-07T00:00:25.701Z,965.36
2022-12-07T00:01:15.683Z,965.34
2022-12-07T00:02:05.691Z,965.35
2022-12-07T00:02:55.716Z,965.36
2022-12-07T00:03:45.755Z,965.32
2022-12-07T00:04:35.655Z,965.30
2022-12-07T00:05:25.638Z,965.27
2022-12-07T00:06:15.624Z,965.33
2022-12-07T00:07:05.612Z,965.28
2022-12-07T00:07:55.650Z,965.35
2022-12-07T00:08:45.590Z,965.29
2022-12-07T00:09:35.647Z,965.24
2022-12-07T00:10:25.584Z,965.26
2022-12-07T00:11:15.589Z,965.23
2022-12-07T00:12:05.570Z,965.21
2022-12-07T00:12:55.560Z,965.22
2022-12-07T00:13:45.549Z,965.19
2022-12-07T00:14:35.550Z,965.22
2022-12-07T00:15:25.569Z,965.24
2022-12-07T00:16:15.579Z,965.18
2022-12-07T00:17:05.503Z,965.16
2022-12-07T00:17:55.509Z,965.19
2022-12-07T00:18:45.515Z,965.24
2022-12-07T00:19:35.496Z,965.25
2022-12-07T00:20:25.466Z,965.23
2022-12-07T00:21:15.488Z,965.27
2022-12-07T00:22:05.439Z,965.21
2022-12-07T00:22:55.462Z,965.24
2022-12-07T00:23:45.432Z,965.24
2022-12-07T00:24:35.430Z,965.20
2022-12-07T00:25:25.429Z,965.19
2022-12-07T00:26:15.416Z,965.19
2022-12-07T00:27:05.629Z,965.22
2022-12-07T00:27:55.387Z,965.13
2022-12-07T00:28:45.371Z,965.18
2022-12-07T00:29:35.393Z,965.13
2022-12-07T00:30:25.380Z,965.15
2022-12-07T00:31:15.471Z,965.12
2022-12-07T00:32:05.386Z,965.08
2022-12-07T00:32:55.564Z,965.07
2022-12-07T00:33:45.338Z,965.07
2022-12-07T00:34:35.324Z,965.07
2022-12-07T00:35:25.316Z,965.07
2022-12-07T00:36:15.297Z,965.03
2022-12-07T00:37:05.275Z,965.02
2022-12-07T00:37:55.297Z,965.01
2022-12-07T00:38:45.527Z,965.01
2022-12-07T00:39:35.255Z,965.05
2022-12-07T00:40:25.246Z,965.06
2022-12-07T00:41:15.262Z,965.02
2022-12-07T00:42:05.251Z,965.00
2022-12-07T00:42:55.227Z,964.98
2022-12-07T00:43:45.386Z,965.01
2022-12-07T00:44:35.445Z,964.97
2022-12-07T00:45:25.200Z,964.97
2022-12-07T00:46:15.252Z,964.98
2022-12-07T00:47:05.191Z,965.00
2022-12-07T00:47:55.222Z,965.00
2022-12-07T00:48:45.165Z,964.98
2022-12-07T00:49:35.173Z,965.00
2022-12-07T00:50:25.260Z,964.98
2022-12-07T00:51:15.142Z,964.96
2022-12-07T00:52:05.146Z,964.96
2022-12-07T00:52:55.144Z,964.94
2022-12-07T00:53:45.105Z,964.96
2022-12-07T00:54:35.118Z,964.96
2022-12-07T00:55:25.084Z,964.98
2022-12-07T00:56:15.120Z,964.97
2022-12-07T00:57:05.090Z,964.96
2022-12-07T00:57:55.061Z,964.95
2022-12-07T00:58:45.045Z,964.94
2022-12-07T00:59:35.059Z,964.93
2022-12-07T01:00:25.048Z,964.95
2022-12-07T01:01:15.119Z,964.92
2022-12-07T01:02:06.211Z,964.93
2022-12-07T01:02:55.059Z,964.92
2022-12-07T01:03:45.077Z,964.89
2022-12-07T01:04:34.999Z,964.95
2022-12-07T01:05:24.997Z,964.95
2022-12-07T01:06:14.992Z,964.98
2022-12-07T01:07:04.977Z,964.94
2022-12-07T01:07:55.129Z,964.93
2022-12-07T01:08:44.969Z,964.98
2022-12-07T01:09:34.939Z,964.98
2022-12-07T01:10:24.949Z,964.93
2022-12-07T01:11:14.943Z,964.98
2022-12-07T01:12:04.905Z,964.99
2022-12-07T01:12:54.909Z,965.00
2022-12-07T01:13:44.889Z,964.97
2022-12-07T01:14:34.910Z,964.96
2022-12-07T01:15:24.887Z,964.96
2022-12-07T01:16:14.935Z,964.99
2022-12-07T01:17:04.926Z,965.00
2022-12-07T01:17:54.848Z,965.05
2022-12-07T01:18:44.874Z,965.03
2022-12-07T01:19:34.839Z,965.03
2022-12-07T01:20:24.858Z,965.10
2022-12-07T01:21:14.816Z,965.03
2022-12-07T01:22:04.807Z,965.04
2022-12-07T01:22:54.867Z,964.97
2022-12-07T01:23:44.777Z,965.01
2022-12-07T01:24:34.776Z,965.03
2022-12-07T01:25:24.766Z,965.07
2022-12-07T01:26:14.792Z,965.06
2022-12-07T01:27:04.744Z,965.07
2022-12-07T01:27:54.752Z,965.09
2022-12-07T01:28:44.716Z,965.11
2022-12-07T01:29:34.712Z,965.22
2022-12-07T01:30:24.741Z,965.15
2022-12-07T01:31:14.770Z,965.13
2022-12-07T01:32:04.744Z,965.19
2022-12-07T01:32:54.699Z,965.14
2022-12-07T01:33:44.667Z,965.12
2022-12-07T01:34:34.654Z,965.15
2022-12-07T01:35:24.645Z,965.19
2022-12-07T01:36:14.645Z,965.15
2022-12-07T01:37:04.625Z,965.16
2022-12-07T01:37:54.676Z,965.20
2022-12-07T01:38:44.625Z,965.19
2022-12-07T01:39:34.625Z,965.17
2022-12-07T01:40:24.615Z,965.17
2022-12-07T01:41:14.584Z,965.18
2022-12-07T01:42:04.584Z,965.14
2022-12-07T01:42:54.563Z,965.16
2022-12-07T01:43:44.573Z,965.16
2022-12-07T01:44:34.549Z,965.20
2022-12-07T01:45:24.555Z,965.20
2022-12-07T01:46:14.593Z,965.21
2022-12-07T01:47:04.542Z,965.20
2022-12-07T01:47:54.540Z,965.18
2022-12-07T01:48:44.533Z,965.16
2022-12-07T01:49:34.497Z,965.19
2022-12-07T01:50:24.489Z,965.16
2022-12-07T01:51:14.500Z,965.18
2022-12-07T01:52:04.476Z,965.23
2022-12-07T01:52:54.452Z,965.23
2022-12-07T01:53:44.491Z,965.24
2022-12-07T01:54:34.438Z,965.24
2022-12-07T01:55:24.432Z,965.21
2022-12-07T01:56:14.459Z,965.20
2022-12-07T01:57:04.430Z,965.20
2022-12-07T01:57:54.411Z,965.21
2022-12-07T01:58:44.393Z,965.24
2022-12-07T01:59:34.420Z,965.16
2022-12-07T02:00:24.381Z,965.18
2022-12-07T02:01:14.440Z,965.21
2022-12-07T02:02:04.379Z,965.18
2022-12-07T02:02:54.469Z,965.24
2022-12-07T02:03:44.334Z,965.16
2022-12-07T02:04:34.340Z,965.18
2022-12-07T02:05:24.358Z,965.20
2022-12-07T02:06:14.325Z,965.22
2022-12-07T02:07:04.314Z,965.19
2022-12-07T02:07:54.331Z,965.21
2022-12-07T02:08:44.278Z,965.18
2022-12-07T02:09:34.290Z,965.20
2022-12-07T02:10:24.310Z,965.24
2022-12-07T02:11:14.247Z,965.21
2022-12-07T02:12:04.271Z,965.22
2022-12-07T02:12:54.244Z,965.24
2022-12-07T02:13:44.236Z,965.25
2022-12-07T02:14:34.237Z,965.24
2022-12-07T02:15:24.207Z,965.24
2022-12-07T02:16:14.278Z,965.28
2022-12-07T02:17:04.205Z,965.26
2022-12-07T02:17:54.176Z,965.27
2022-12-07T02:18:44.229Z,965.26
2022-12-07T02:19:34.168Z,965.23
2022-12-07T02:20:24.187Z,965.23
2022-12-07T02:21:14.146Z,965.23
2022-12-07T02:22:04.147Z,965.24
2022-12-07T02:22:54.125Z,965.25
2022-12-07T02:23:44.144Z,965.24
2022-12-07T02:24:34.144Z,965.23
2022-12-07T02:25:24.095Z,965.26
2022-12-07T02:26:14.103Z,965.19
2022-12-07T02:27:04.083Z,965.22
2022-12-07T02:27:54.068Z,965.23
2022-12-07T02:28:44.075Z,965.21
2022-12-07T02:29:34.047Z,965.24
2022-12-07T02:30:24.476Z,965.23
2022-12-07T02:31:14.131Z,965.23
2022-12-07T02:32:04.025Z,965.20
2022-12-07T02:32:54.031Z,965.20
2022-12-07T02:33:44.027Z,965.20
2022-12-07T02:34:34.018Z,965.19
2022-12-07T02:35:24.004Z,965.19
2022-12-07T02:36:14.008Z,965.21
2022-12-07T02:37:03.992Z,965.19
2022-12-07T02:37:53.959Z,965.19
2022-12-07T02:38:43.985Z,965.21
2022-12-07T02:39:33.951Z,965.20
2022-12-07T02:40:23.953Z,965.20
2022-12-07T02:41:13.957Z,965.21
2022-12-07T02:42:03.943Z,965.27
2022-12-07T02:42:53.919Z,965.26
2022-12-07T02:43:43.952Z,965.21
2022-12-07T02:44:33.891Z,965.25
2022-12-07T02:45:23.901Z,965.23
2022-12-07T02:46:13.922Z,965.23
2022-12-07T02:47:03.860Z,965.23
2022-12-07T02:47:53.861Z,965.21
2022-12-07T02:48:43.866Z,965.22
2022-12-07T02:49:33.897Z,965.23
2022-12-07T02:50:23.840Z,965.28
2022-12-07T02:51:13.830Z,965.23
2022-12-07T02:52:03.829Z,965.27
2022-12-07T02:52:53.798Z,965.25
2022-12-07T02:53:43.809Z,965.20
2022-12-07T02:54:33.780Z,965.18
2022-12-07T02:55:23.810Z,965.22
2022-12-07T02:56:13.775Z,965.21
2022-12-07T02:57:03.763Z,965.16
2022-12-07T02:57:53.758Z,965.18
2022-12-07T02:58:43.743Z,965.17
2022-12-07T02:59:33.732Z,965.21
2022-12-07T03:00:23.948Z,965.16
2022-12-07T03:01:13.811Z,965.17
2022-12-07T03:02:03.778Z,965.17
2022-12-07T03:02:53.744Z,965.16
2022-12-07T03:03:43.678Z,965.18
2022-12-07T03:04:33.687Z,965.18
2022-12-07T03:05:23.686Z,965.17
2022-12-07T03:06:13.959Z,965.20
2022-12-07T03:07:03.650Z,965.19
2022-12-07T03:07:53.729Z,965.18
2022-12-07T03:08:43.625Z,965.16
2022-12-07T03:09:33.626Z,965.16
2022-12-07T03:10:23.607Z,965.18
2022-12-07T03:11:16.410Z,965.15
2022-12-07T03:12:04.625Z,965.10
2022-12-07T03:12:53.576Z,965.10
2022-12-07T03:13:43.576Z,965.07
2022-12-07T03:14:33.555Z,965.09
2022-12-07T03:15:23.589Z,965.10
2022-12-07T03:16:13.597Z,965.07
2022-12-07T03:17:03.564Z,965.07
2022-12-07T03:17:53.552Z,965.11
2022-12-07T03:18:43.522Z,965.06
2022-12-07T03:19:33.514Z,965.05
2022-12-07T03:20:23.515Z,965.03
2022-12-07T03:21:13.513Z,965.03
2022-12-07T03:22:03.526Z,965.03
2022-12-07T03:22:53.475Z,965.07
2022-12-07T03:23:43.475Z,965.01
2022-12-07T03:24:33.484Z,965.01
2022-12-07T03:25:23.444Z,965.00
2022-12-07T03:26:13.440Z,964.99
2022-12-07T03:27:03.423Z,965.01
2022-12-07T03:27:53.481Z,965.01
2022-12-07T03:28:43.411Z,964.99
2022-12-07T03:29:33.403Z,964.98
2022-12-07T03:30:23.409Z,964.96
2022-12-07T03:31:13.450Z,964.98
2022-12-07T03:32:03.380Z,964.96
2022-12-07T03:32:53.352Z,964.95
2022-12-07T03:33:43.391Z,964.95
2022-12-07T03:34:33.369Z,964.94
2022-12-07T03:35:23.342Z,964.95
2022-12-07T03:36:13.321Z,964.97
2022-12-07T03:37:03.311Z,964.99
2022-12-07T03:37:53.318Z,964.99
2022-12-07T03:38:43.311Z,965.00
2022-12-07T03:39:33.320Z,965.01
2022-12-07T03:40:23.290Z,965.05
2022-12-07T03:41:13.271Z,965.01
2022-12-07T03:42:03.282Z,965.04
2022-12-07T03:42:53.258Z,965.02
2022-12-07T03:43:43.263Z,965.03
2022-12-07T03:44:33.229Z,965.04
2022-12-07T03:45:23.251Z,965.05
2022-12-07T03:46:13.297Z,965.03
2022-12-07T03:47:03.269Z,965.06
2022-12-07T03:47:53.218Z,965.01
2022-12-07T03:48:43.197Z,965.02
2022-12-07T03:49:33.178Z,965.05
2022-12-07T03:50:23.190Z,964.99
2022-12-07T03:51:13.221Z,965.02
2022-12-07T03:52:03.165Z,965.02
2022-12-07T03:52:53.138Z,965.02
2022-12-07T03:53:43.148Z,965.00
2022-12-07T03:54:33.169Z,964.99
2022-12-07T03:55:23.117Z,965.01
2022-12-07T03:56:13.125Z,964.97
2022-12-07T03:57:03.327Z,964.96
2022-12-07T03:57:53.089Z,965.03
2022-12-07T03:58:43.076Z,965.00
2022-12-07T03:59:33.088Z,964.97
2022-12-07T04:00:23.055Z,964.99
2022-12-07T04:01:13.049Z,965.02
2022-12-07T04:02:03.111Z,965.07
2022-12-07T04:02:53.164Z,965.05
2022-12-07T04:03:43.043Z,965.04
2022-12-07T04:04:33.010Z,965.04
2022-12-07T04:05:23.009Z,965.04
2022-12-07T04:06:13.001Z,965.06
2022-12-07T04:07:02.984Z,965.07
2022-12-07T04:07:53.057Z,965.03
2022-12-07T04:08:43.022Z,965.04
2022-12-07T04:09:32.973Z,965.00
2022-12-07T04:10:23.185Z,965.05
2022-12-07T04:11:12.955Z,965.09
2022-12-07T04:12:02.950Z,965.07
2022-12-07T04:12:52.923Z,965.04
2022-12-07T04:13:42.933Z,965.06
2022-12-07T04:14:32.952Z,965.05
2022-12-07T04:15:22.903Z,964.98
2022-12-07T04:16:13.010Z,965.00
2022-12-07T04:17:02.904Z,965.01
2022-12-07T04:17:52.877Z,964.99
2022-12-07T04:18:42.872Z,965.01
2022-12-07T04:19:32.852Z,965.00
2022-12-07T04:20:22.853Z,964.98
2022-12-07T04:21:12.834Z,964.97
2022-12-07T04:22:03.062Z,964.96
2022-12-07T04:22:52.819Z,965.01
2022-12-07T04:23:42.807Z,964.98
2022-12-07T04:24:32.811Z,964.96
2022-12-07T04:25:22.799Z,964.94
2022-12-07T04:26:12.781Z,964.96
2022-12-07T04:27:02.803Z,964.96
2022-12-07T04:27:52.779Z,964.96
2022-12-07T04:28:42.755Z,964.95
2022-12-07T04:29:32.751Z,964.93
2022-12-07T04:30:22.782Z,964.93
2022-12-07T04:31:13.278Z,964.94
2022-12-07T04:32:02.758Z,964.96
2022-12-07T04:32:52.727Z,964.97
2022-12-07T04:33:42.732Z,964.93
2022-12-07T04:34:32.697Z,964.89
2022-12-07T04:35:22.702Z,964.91
2022-12-07T04:36:12.679Z,964.92
2022-12-07T04:37:02.663Z,964.93
2022-12-07T04:37:52.659Z,964.91
2022-12-07T04:38:42.689Z,964.90
2022-12-07T04:39:32.637Z,964.89
2022-12-07T04:40:22.617Z,964.93
2022-12-07T04:41:12.619Z,964.97
2022-12-07T04:42:02.626Z,964.97
2022-12-07T04:42:52.596Z,964.89
2022-12-07T04:43:42.585Z,964.91
2022-12-07T04:44:32.600Z,964.86
2022-12-07T04:45:22.585Z,964.87
2022-12-07T04:46:12.630Z,964.86
2022-12-07T04:47:02.609Z,964.87
2022-12-07T04:47:52.569Z,964.86
2022-12-07T04:48:42.569Z,964.88
2022-12-07T04:49:32.542Z,964.85
2022-12-07T04:50:22.567Z,964.91
2022-12-07T04:51:12.510Z,964.88
2022-12-07T04:52:02.499Z,964.89
2022-12-07T04:52:52.507Z,964.88
2022-12-07T04:53:42.485Z,964.87
2022-12-07T04:54:32.485Z,964.92
2022-12-07T04:55:22.494Z,964.92
2022-12-07T04:56:12.501Z,964.95
2022-12-07T04:57:02.447Z,964.90
2022-12-07T04:57:52.443Z,964.91
2022-12-07T04:58:42.436Z,964.92
2022-12-07T04:59:32.437Z,964.91
2022-12-07T05:00:22.395Z,964.91
2022-12-07T05:01:12.455Z,964.92
2022-12-07T05:02:02.477Z,964.94
2022-12-07T05:02:52.376Z,964.92
2022-12-07T05:03:42.366Z,964.97
2022-12-07T05:04:32.381Z,964.98
2022-12-07T05:05:22.363Z,964.98
2022-12-07T05:06:13.759Z,964.96
2022-12-07T05:07:02.324Z,964.97
2022-12-07T05:07:52.412Z,965.01
2022-12-07T05:08:42.332Z,965.04
2022-12-07T05:09:32.303Z,965.01
2022-12-07T05:10:22.304Z,964.98
2022-12-07T05:11:12.303Z,965.01
2022-12-07T05:12:02.297Z,965.00
2022-12-07T05:12:52.310Z,964.98
2022-12-07T05:13:42.262Z,964.97
2022-12-07T05:14:32.274Z,964.93
2022-12-07T05:15:22.241Z,964.93
2022-12-07T05:16:12.276Z,964.95
2022-12-07T05:17:02.240Z,964.89
2022-12-07T05:17:52.212Z,964.95
2022-12-07T05:18:42.224Z,964.92
2022-12-07T05:19:32.214Z,964.95
2022-12-07T05:20:22.210Z,965.01
2022-12-07T05:21:12.194Z,964.99
2022-12-07T05:22:02.193Z,964.98
2022-12-07T05:22:52.193Z,964.96
2022-12-07T05:23:42.158Z,964.92
2022-12-07T05:24:32.139Z,964.92
2022-12-07T05:25:22.139Z,964.89
2022-12-07T05:26:12.137Z,964.86
2022-12-07T05:27:02.120Z,964.87
2022-12-07T05:27:52.100Z,964.86
2022-12-07T05:28:42.109Z,964.90
2022-12-07T05:29:32.106Z,964.89
2022-12-07T05:30:22.086Z,964.86
2022-12-07T05:31:12.104Z,964.87
2022-12-07T05:32:02.116Z,964.88
2022-12-07T05:32:52.047Z,964.89
2022-12-07T05:33:42.037Z,964.87
2022-12-07T05:34:32.097Z,964.86
2022-12-07T05:35:22.049Z,964.94
2022-12-07T05:36:12.020Z,964.89
2022-12-07T05:37:02.016Z,964.91
2022-12-07T05:37:52.005Z,964.89
2022-12-07T05:38:41.987Z,964.89
2022-12-07T05:39:32.006Z,964.87
2022-12-07T05:40:21.985Z,964.89
2022-12-07T05:41:11.981Z,964.90
2022-12-07T05:42:01.964Z,964.88
2022-12-07T05:42:51.969Z,964.92
2022-12-07T05:43:41.928Z,964.92
2022-12-07T05:44:31.944Z,964.91
2022-12-07T05:45:22.060Z,964.93
2022-12-07T05:46:11.945Z,964.96
2022-12-07T05:47:01.897Z,964.95
2022-12-07T05:47:51.895Z,964.92
2022-12-07T05:48:41.914Z,964.94
2022-12-07T05:49:31.884Z,964.96
2022-12-07T05:50:21.866Z,964.90
2022-12-07T05:51:11.923Z,964.97
2022-12-07T05:52:01.844Z,964.94
2022-12-07T05:52:51.851Z,964.94
2022-12-07T05:53:41.834Z,964.98
2022-12-07T05:54:31.816Z,964.93
2022-12-07T05:55:21.815Z,964.97
2022-12-07T05:56:11.811Z,964.95
2022-12-07T05:57:01.832Z,964.95
2022-12-07T05:57:51.787Z,964.92
2022-12-07T05:58:41.763Z,964.94
2022-12-07T05:59:31.783Z,964.96
2022-12-07T06:00:21.753Z,964.94
2022-12-07T06:01:11.752Z,964.97
2022-12-07T06:02:01.788Z,964.96
2022-12-07T06:02:51.833Z,964.89
2022-12-07T06:03:41.730Z,964.92
2022-12-07T06:04:31.721Z,964.88
2022-12-07T06:05:21.730Z,964.96
2022-12-07T06:06:11.792Z,964.91
2022-12-07T06:07:01.699Z,964.91
2022-12-07T06:07:51.739Z,964.90
2022-12-07T06:08:41.662Z,964.94
2022-12-07T06:09:31.650Z,964.94
2022-12-07T06:10:21.642Z,964.96
2022-12-07T06:11:11.860Z,964.93
2022-12-07T06:12:01.640Z,964.94
2022-12-07T06:12:51.846Z,964.89
2022-12-07T06:13:46.953Z,964.94
2022-12-07T06:14:32.610Z,964.95
2022-12-07T06:15:21.588Z,964.96
2022-12-07T06:16:11.653Z,964.97
2022-12-07T06:17:01.675Z,964.96
2022-12-07T06:17:51.570Z,965.03
2022-12-07T06:18:41.547Z,964.99
2022-12-07T06:19:31.547Z,965.00
2022-12-07T06:20:21.524Z,965.00
2022-12-07T06:21:11.530Z,965.10
2022-12-07T06:22:01.549Z,965.06
2022-12-07T06:22:51.581Z,965.07
2022-12-07T06:23:41.512Z,965.04
2022-12-07T06:24:31.486Z,965.01
2022-12-07T06:25:21.519Z,964.98
2022-12-07T06:26:11.485Z,964.97
2022-12-07T06:27:01.456Z,965.01
2022-12-07T06:27:51.456Z,964.96
2022-12-07T06:28:41.466Z,964.96
2022-12-07T06:29:31.435Z,964.98
2022-12-07T06:30:21.435Z,964.96
2022-12-07T06:31:14.152Z,964.98
2022-12-07T06:32:01.471Z,965.00
2022-12-07T06:32:51.426Z,965.00
2022-12-07T06:33:41.409Z,964.98
2022-12-07T06:34:31.376Z,965.00
2022-12-07T06:35:21.367Z,964.95
2022-12-07T06:36:11.363Z,965.03
2022-12-07T06:37:01.366Z,964.95
2022-12-07T06:37:51.334Z,965.05
2022-12-07T06:38:41.537Z,965.08
2022-12-07T06:39:31.343Z,965.07
2022-12-07T06:40:21.323Z,965.07
2022-12-07T06:41:11.314Z,965.03
2022-12-07T06:42:01.296Z,965.06
2022-12-07T06:42:51.304Z,965.08
2022-12-07T06:43:41.285Z,965.09
2022-12-07T06:44:31.311Z,965.08
2022-12-07T06:45:21.262Z,965.18
2022-12-07T06:46:11.371Z,965.17
2022-12-07T06:47:38.840Z,965.16
2022-12-07T06:47:52.256Z,965.19
2022-12-07T06:48:41.248Z,965.18
2022-12-07T06:49:31.218Z,965.18
2022-12-07T06:50:21.440Z,965.16
2022-12-07T06:51:11.202Z,965.17
2022-12-07T06:52:01.190Z,965.16
2022-12-07T06:52:51.198Z,965.14
2022-12-07T06:53:41.162Z,965.13
2022-12-07T06:54:31.198Z,965.12
2022-12-07T06:55:21.190Z,965.15
2022-12-07T06:56:11.416Z,965.16
2022-12-07T06:57:01.134Z,965.21
2022-12-07T06:57:51.156Z,965.22
2022-12-07T06:58:41.109Z,965.23
2022-12-07T06:59:31.120Z,965.28
2022-12-07T07:00:22.414Z,965.27
2022-12-07T07:01:11.120Z,965.26
2022-12-07T07:02:01.339Z,965.27
2022-12-07T07:02:51.168Z,965.27
2022-12-07T07:03:41.077Z,965.31
2022-12-07T07:04:31.047Z,965.31
2022-12-07T07:05:21.063Z,965.32
2022-12-07T07:06:11.038Z,965.29
2022-12-07T07:07:01.040Z,965.31
2022-12-07T07:08:20.977Z,965.32
2022-12-07T07:08:42.037Z,965.33
2022-12-07T07:09:31.000Z,965.36
2022-12-07T07:10:20.976Z,965.34
2022-12-07T07:11:10.996Z,965.34
2022-12-07T07:12:00.987Z,965.33
2022-12-07T07:12:55.769Z,965.33
2022-12-07T07:13:41.983Z,965.37
2022-12-07T07:14:30.952Z,965.36
2022-12-07T07:15:20.944Z,965.37
2022-12-07T07:16:10.972Z,965.34
2022-12-07T07:17:00.956Z,965.34
2022-12-07T07:17:50.922Z,965.36
2022-12-07T07:18:40.942Z,965.32
2022-12-07T07:19:31.126Z,965.28
2022-12-07T07:20:20.882Z,965.38
2022-12-07T07:21:10.865Z,965.36
2022-12-07T07:22:00.865Z,965.38
2022-12-07T07:22:50.854Z,965.39
2022-12-07T07:23:40.844Z,965.39
2022-12-07T07:24:30.941Z,965.37
2022-12-07T07:25:20.817Z,965.45
2022-12-07T07:26:10.834Z,965.35
2022-12-07T07:27:00.799Z,965.31
2022-12-07T07:27:50.803Z,965.38
2022-12-07T07:28:40.822Z,965.33
2022-12-07T07:29:30.775Z,965.32
2022-12-07T07:30:20.795Z,965.36
2022-12-07T07:31:10.833Z,965.35
2022-12-07T07:32:06.479Z,965.36
2022-12-07T07:32:51.762Z,965.36
2022-12-07T07:33:40.740Z,965.37
2022-12-07T07:34:30.778Z,965.37
2022-12-07T07:35:20.730Z,965.36
2022-12-07T07:36:10.710Z,965.41
2022-12-07T07:37:00.710Z,965.43
2022-12-07T07:37:50.700Z,965.41
2022-12-07T07:38:40.671Z,965.40
2022-12-07T07:39:30.682Z,965.40
2022-12-07T07:40:20.881Z,965.36
2022-12-07T07:41:10.658Z,965.34
2022-12-07T07:42:00.640Z,965.30
2022-12-07T07:42:50.638Z,965.32
2022-12-07T07:43:40.629Z,965.33
2022-12-07T07:44:35.136Z,965.32
2022-12-07T07:45:21.822Z,965.38
2022-12-07T07:46:10.644Z,965.36
2022-12-07T07:47:00.588Z,965.46
2022-12-07T07:47:50.585Z,965.39
2022-12-07T07:48:40.559Z,965.39
2022-12-07T07:49:30.581Z,965.41
2022-12-07T07:50:20.558Z,965.34
2022-12-07T07:51:10.816Z,965.38
2022-12-07T07:52:00.537Z,965.39
2022-12-07T07:52:50.525Z,965.42
2022-12-07T07:53:40.513Z,965.38
2022-12-07T07:54:30.525Z,965.42
2022-12-07T07:55:20.515Z,965.43
2022-12-07T07:56:10.507Z,965.43
2022-12-07T07:57:00.525Z,965.40
2022-12-07T07:57:54.780Z,965.39
2022-12-07T07:58:40.460Z,965.42
2022-12-07T07:59:30.457Z,965.44
2022-12-07T08:00:20.445Z,965.45
2022-12-07T08:01:10.479Z,965.48
2022-12-07T08:02:00.476Z,965.51
2022-12-07T08:02:50.665Z,965.46
2022-12-07T08:03:40.417Z,965.48
2022-12-07T08:04:30.446Z,965.49
2022-12-07T08:05:20.429Z,965.49
2022-12-07T08:06:10.386Z,965.51
2022-12-07T08:07:00.385Z,965.50
2022-12-07T08:07:50.393Z,965.54
2022-12-07T08:08:40.383Z,965.55
2022-12-07T08:09:30.354Z,965.58
2022-12-07T08:10:20.354Z,965.54
2022-12-07T08:11:10.342Z,965.56
2022-12-07T08:12:00.321Z,965.54
2022-12-07T08:12:50.304Z,965.52
2022-12-07T08:13:40.292Z,965.51
2022-12-07T08:14:30.333Z,965.57
2022-12-07T08:15:20.310Z,965.52
2022-12-07T08:16:10.399Z,965.53
2022-12-07T08:17:00.253Z,965.57
2022-12-07T08:17:50.261Z,965.59
2022-12-07T08:18:40.258Z,965.57
2022-12-07T08:19:30.238Z,965.57
2022-12-07T08:20:20.261Z,965.57
2022-12-07T08:21:10.202Z,965.58
2022-12-07T08:22:00.204Z,965.59
2022-12-07T08:22:50.201Z,965.61
2022-12-07T08:23:40.324Z,965.59
2022-12-07T08:24:30.169Z,965.60
2022-12-07T08:25:20.193Z,965.62
2022-12-07T08:26:10.212Z,965.62
2022-12-07T08:27:00.159Z,965.62
2022-12-07T08:27:50.129Z,965.62
2022-12-07T08:28:40.135Z,965.61
2022-12-07T08:29:30.133Z,965.61
2022-12-07T08:30:20.129Z,965.62
2022-12-07T08:31:10.163Z,965.61
2022-12-07T08:32:04.085Z,965.60
2022-12-07T08:32:51.087Z,965.58
2022-12-07T08:33:41.561Z,965.55
2022-12-07T08:34:30.096Z,965.55
2022-12-07T08:35:20.056Z,965.56
2022-12-07T08:36:10.048Z,965.62
2022-12-07T08:37:00.070Z,965.56
2022-12-07T08:37:50.288Z,965.58
2022-12-07T08:38:40.015Z,965.56
2022-12-07T08:39:31.850Z,965.61
2022-12-07T08:40:20.021Z,965.56
2022-12-07T08:41:09.987Z,965.59
2022-12-07T08:42:00.055Z,965.58
2022-12-07T08:42:49.966Z,965.58
2022-12-07T08:43:40.184Z,965.61
2022-12-07T08:44:29.946Z,965.61
2022-12-07T08:45:26.317Z,965.63
2022-12-07T08:46:11.001Z,965.64
2022-12-07T08:46:59.938Z,965.64
2022-12-07T08:47:49.914Z,965.64
2022-12-07T08:48:39.915Z,965.59
2022-12-07T08:49:29.940Z,965.57
2022-12-07T08:50:19.903Z,965.62
2022-12-07T08:51:09.894Z,965.60
2022-12-07T08:51:59.882Z,965.60
2022-12-07T08:52:49.872Z,965.61
2022-12-07T08:53:39.872Z,965.59
2022-12-07T08:54:29.849Z,965.56
2022-12-07T08:55:19.866Z,965.58
2022-12-07T08:56:09.832Z,965.56
2022-12-07T08:57:00.254Z,965.56
2022-12-07T08:57:49.854Z,965.57
2022-12-07T08:58:39.811Z,965.53
2022-12-07T08:59:29.785Z,965.57
2022-12-07T09:00:19.824Z,965.55
2022-12-07T09:01:11.103Z,965.54
2022-12-07T09:01:59.835Z,965.56
2022-12-07T09:02:49.757Z,965.60
2022-12-07T09:03:39.742Z,965.58
2022-12-07T09:04:29.746Z,965.56
2022-12-07T09:05:19.794Z,965.54
2022-12-07T09:06:09.813Z,965.55
2022-12-07T09:06:59.828Z,965.51
2022-12-07T09:07:49.731Z,965.60
2022-12-07T09:08:39.769Z,965.58
2022-12-07T09:09:29.689Z,965.59
2022-12-07T09:10:19.703Z,965.60
2022-12-07T09:11:09.661Z,965.58
2022-12-07T09:11:59.735Z,965.60
2022-12-07T09:12:49.692Z,965.59
2022-12-07T09:13:39.711Z,965.59
2022-12-07T09:14:29.638Z,965.61
2022-12-07T09:15:19.639Z,965.63
2022-12-07T09:16:09.660Z,965.63
2022-12-07T09:16:59.607Z,965.61
2022-12-07T09:17:49.654Z,965.61
2022-12-07T09:18:39.869Z,965.58
2022-12-07T09:19:29.586Z,965.62
2022-12-07T09:20:24.637Z,965.66
2022-12-07T09:21:10.563Z,965.62
2022-12-07T09:21:59.606Z,965.65
2022-12-07T09:22:49.536Z,965.60
2022-12-07T09:23:39.546Z,965.62
2022-12-07T09:24:29.785Z,965.60
2022-12-07T09:25:19.515Z,965.65
2022-12-07T09:26:11.001Z,965.66
2022-12-07T09:26:59.499Z,965.61
2022-12-07T09:27:49.485Z,965.65
2022-12-07T09:28:39.473Z,965.65
2022-12-07T09:29:29.461Z,965.63
2022-12-07T09:30:19.485Z,965.59
2022-12-07T09:31:26.075Z,965.58
2022-12-07T09:32:00.532Z,965.61
2022-12-07T09:32:49.426Z,965.63
2022-12-07T09:33:39.432Z,965.61
2022-12-07T09:34:29.439Z,965.65
2022-12-07T09:35:19.392Z,965.63
2022-12-07T09:36:09.462Z,965.59
2022-12-07T09:36:59.406Z,965.63
2022-12-07T09:37:49.371Z,965.66
2022-12-07T09:38:39.388Z,965.65
2022-12-07T09:39:29.367Z,965.64
2022-12-07T09:40:19.341Z,965.69
2022-12-07T09:41:09.341Z,965.65
2022-12-07T09:41:59.632Z,965.62
2022-12-07T09:42:49.327Z,965.62
2022-12-07T09:43:39.332Z,965.60
2022-12-07T09:44:29.322Z,965.63
2022-12-07T09:45:19.298Z,965.63
2022-12-07T09:46:09.286Z,965.60
2022-12-07T09:46:59.291Z,965.59
2022-12-07T09:47:49.345Z,965.60
2022-12-07T09:48:39.272Z,965.56
2022-12-07T09:49:29.269Z,965.53
2022-12-07T09:50:19.260Z,965.55
2022-12-07T09:51:09.249Z,965.51
2022-12-07T09:51:59.236Z,965.49
2022-12-07T09:52:49.228Z,965.47
2022-12-07T09:53:39.472Z,965.50
2022-12-07T09:54:29.190Z,965.52
2022-12-07T09:55:19.236Z,965.52
2022-12-07T09:56:09.179Z,965.51
2022-12-07T09:56:59.169Z,965.48
2022-12-07T09:57:49.148Z,965.45
2022-12-07T09:58:39.175Z,965.46
2022-12-07T09:59:33.731Z,965.46
2022-12-07T10:00:20.432Z,965.45
2022-12-07T10:01:09.128Z,965.42
2022-12-07T10:01:59.219Z,965.41
2022-12-07T10:02:49.097Z,965.42
2022-12-07T10:03:39.086Z,965.39
2022-12-07T10:04:29.137Z,965.40
2022-12-07T10:05:23.905Z,965.38
2022-12-07T10:06:10.300Z,965.38
2022-12-07T10:06:59.066Z,965.32
2022-12-07T10:07:49.089Z,965.34
2022-12-07T10:08:39.036Z,965.32
2022-12-07T10:09:29.036Z,965.28
2022-12-07T10:10:19.037Z,965.28
2022-12-07T10:11:09.016Z,965.21
2022-12-07T10:11:59.029Z,965.21
2022-12-07T10:12:48.999Z,965.23
2022-12-07T10:13:38.974Z,965.23
2022-12-07T10:14:44.224Z,965.19
2022-12-07T10:15:20.452Z,965.17
2022-12-07T10:16:08.986Z,965.13
2022-12-07T10:16:59.051Z,965.13
2022-12-07T10:17:48.929Z,965.12
2022-12-07T10:18:38.943Z,965.13
2022-12-07T10:19:28.935Z,965.13
2022-12-07T10:20:18.947Z,965.12
2022-12-07T10:21:08.900Z,965.09
2022-12-07T10:21:58.895Z,965.10
2022-12-07T10:22:48.973Z,965.08
2022-12-07T10:23:38.870Z,965.11